createdAt,value
2022-12-15T00:00:54.642Z,0.52
2022-12-15T00:03:48.585Z,0.60
2022-12-15T00:06:41.440Z,0.52
2022-12-15T00:09:34.928Z,0.70
2022-12-15T00:12:25.474Z,0.80
2022-12-15T00:15:16.842Z,0.70
2022-12-15T00:18:07.533Z,0.60
2022-12-15T00:21:00.217Z,0.60
2022-12-15T00:23:50.584Z,0.70
2022-12-15T00:26:42.085Z,0.60
2022-12-15T00:29:32.547Z,0.70
2022-12-15T00:32:23.977Z,1.25
2022-12-15T00:35:14.854Z,0.65
2022-12-15T00:38:07.671Z,0.60
2022-12-15T00:40:42.326Z,0.70
2022-12-15T00:43:17.740Z,0.57
2022-12-15T00:46:08.381Z,0.70
2022-12-15T00:48:44.911Z,0.63
2022-12-15T00:51:18.400Z,0.63
2022-12-15T00:54:17.754Z,0.47
2022-12-15T00:57:08.602Z,0.60
2022-12-15T01:00:00.198Z,0.60
2022-12-15T01:02:51.228Z,0.93
2022-12-15T01:05:42.557Z,0.70
2022-12-15T01:08:33.481Z,0.60
2022-12-15T01:11:26.679Z,0.80
2022-12-15T01:14:17.357Z,0.70
2022-12-15T01:17:08.583Z,0.70
2022-12-15T01:19:59.581Z,0.70
2022-12-15T01:22:34.646Z,0.70
2022-12-15T01:25:09.401Z,0.80
2022-12-15T01:27:46.556Z,0.80
2022-12-15T01:30:23.033Z,0.70
2022-12-15T01:32:59.622Z,0.80
2022-12-15T01:35:35.716Z,0.77
2022-12-15T01:38:12.166Z,0.70
2022-12-15T01:40:59.086Z,1.02
2022-12-15T01:43:39.777Z,0.60
2022-12-15T01:46:17.653Z,0.80
2022-12-15T01:49:02.602Z,0.80
2022-12-15T01:51:41.346Z,0.70
2022-12-15T01:54:18.470Z,0.80
2022-12-15T01:56:57.555Z,0.70
2022-12-15T01:59:39.943Z,0.70
2022-12-15T02:02:18.276Z,1.00
2022-12-15T02:04:58.276Z,0.93
2022-12-15T02:07:34.761Z,0.93
2022-12-15T02:10:12.881Z,0.80
2022-12-15T02:12:52.562Z,1.00
2022-12-15T02:15:39.024Z,1.00
2022-12-15T02:18:20.607Z,0.90
2022-12-15T02:21:02.643Z,0.90
2022-12-15T02:24:02.816Z,1.10
2022-12-15T02:26:54.429Z,0.77
2022-12-15T02:29:41.723Z,0.90
2022-12-15T02:32:20.873Z,0.90
2022-12-15T02:34:59.587Z,0.90
2022-12-15T02:37:38.472Z,0.98
2022-12-15T02:40:16.376Z,1.00
2022-12-15T02:42:56.739Z,0.88
2022-12-15T02:45:36.418Z,1.20
2022-12-15T02:48:18.398Z,1.00
2022-12-15T02:51:03.271Z,0.95
2022-12-15T02:53:54.524Z,1.00
2022-12-15T02:56:32.977Z,0.95
2022-12-15T02:59:12.753Z,1.00
2022-12-15T03:01:50.827Z,1.10
2022-12-15T03:04:28.955Z,1.27
2022-12-15T03:07:04.983Z,1.15
2022-12-15T03:09:42.768Z,1.00
2022-12-15T03:12:17.840Z,1.25
2022-12-15T03:14:53.629Z,1.30
2022-12-15T03:17:29.923Z,1.10
2022-12-15T03:20:07.022Z,1.30
2022-12-15T03:22:42.719Z,1.48
2022-12-15T03:25:19.082Z,1.25
2022-12-15T03:27:57.822Z,1.40
2022-12-15T03:30:32.660Z,1.20
2022-12-15T03:33:07.995Z,1.30
2022-12-15T03:35:46.125Z,1.40
2022-12-15T03:38:21.527Z,1.52
2022-12-15T03:40:57.489Z,1.35
2022-12-15T03:43:32.858Z,1.23
2022-12-15T03:46:08.842Z,1.50
2022-12-15T03:48:44.837Z,1.60
2022-12-15T03:51:21.560Z,1.50
2022-12-15T03:53:56.298Z,1.58
2022-12-15T03:56:34.742Z,1.20
2022-12-15T03:59:11.084Z,1.40
2022-12-15T04:01:51.412Z,1.30
2022-12-15T04:04:27.231Z,1.63
2022-12-15T04:07:05.169Z,1.63
2022-12-15T04:09:41.937Z,1.48
2022-12-15T04:12:18.442Z,1.67
2022-12-15T04:14:56.254Z,1.30
2022-12-15T04:17:32.493Z,1.52
2022-12-15T04:20:15.689Z,1.58
2022-12-15T04:22:54.042Z,1.80
2022-12-15T04:25:45.436Z,1.98
2022-12-15T04:28:36.710Z,1.58
2022-12-15T04:31:31.289Z,1.98
2022-12-15T04:34:24.660Z,1.88
2022-12-15T04:37:19.396Z,1.90
2022-12-15T04:40:14.366Z,1.90
2022-12-15T04:43:08.206Z,1.80
2022-12-15T04:46:01.463Z,1.70
2022-12-15T04:48:52.900Z,1.70
2022-12-15T04:51:45.680Z,1.60
2022-12-15T04:54:36.558Z,1.70
2022-12-15T04:57:31.381Z,1.83
2022-12-15T05:00:22.983Z,1.70
2022-12-15T05:03:18.321Z,1.80
2022-12-15T05:06:10.340Z,1.90
2022-12-15T05:09:02.163Z,1.67
2022-12-15T05:11:53.340Z,1.67
2022-12-15T05:14:49.488Z,1.48
2022-12-15T05:17:41.806Z,1.80
2022-12-15T05:20:33.494Z,2.10
2022-12-15T05:23:24.678Z,1.95
2022-12-15T05:26:19.972Z,1.92
2022-12-15T05:29:12.279Z,2.20
2022-12-15T05:32:00.453Z,2.03
2022-12-15T05:34:38.150Z,1.80
2022-12-15T05:37:14.224Z,1.50
2022-12-15T05:39:51.088Z,2.13
2022-12-15T05:42:27.481Z,1.77
2022-12-15T05:45:03.632Z,2.08
2022-12-15T05:47:42.643Z,1.80
2022-12-15T05:50:31.419Z,2.10
2022-12-15T05:53:08.001Z,2.17
2022-12-15T05:55:44.410Z,2.15
2022-12-15T05:58:33.404Z,2.30
2022-12-15T06:01:12.404Z,2.33
2022-12-15T06:03:50.725Z,1.98
2022-12-15T06:06:30.904Z,2.10
2022-12-15T06:09:11.023Z,2.25
2022-12-15T06:11:48.723Z,2.60
2022-12-15T06:14:26.157Z,2.00
2022-12-15T06:17:02.785Z,2.10
2022-12-15T06:19:41.287Z,2.50
2022-12-15T06:22:20.352Z,2.00
2022-12-15T06:24:56.483Z,2.28
2022-12-15T06:27:32.580Z,2.28
2022-12-15T06:30:12.731Z,2.17
2022-12-15T06:32:50.524Z,2.03
2022-12-15T06:35:28.865Z,2.33
2022-12-15T06:38:04.713Z,1.90
2022-12-15T06:40:41.436Z,2.22
2022-12-15T06:43:18.232Z,1.60
2022-12-15T06:45:55.737Z,1.92
2022-12-15T06:48:35.826Z,2.20
2022-12-15T06:51:36.514Z,2.13
2022-12-15T06:54:23.457Z,2.40
2022-12-15T06:57:02.580Z,1.73
2022-12-15T06:59:44.678Z,2.13
2022-12-15T07:02:38.233Z,2.40
2022-12-15T07:05:19.379Z,2.55
2022-12-15T07:07:58.663Z,2.78
2022-12-15T07:10:36.565Z,2.65
2022-12-15T07:13:14.238Z,2.75
2022-12-15T07:15:51.863Z,2.67
2022-12-15T07:18:29.353Z,3.38
2022-12-15T07:21:09.568Z,3.35
2022-12-15T07:23:56.975Z,3.10
2022-12-15T07:26:34.310Z,8.48
2022-12-15T07:29:10.348Z,2.75
2022-12-15T07:31:46.666Z,3.13
2022-12-15T07:34:23.519Z,3.08
2022-12-15T07:36:59.439Z,2.80
2022-12-15T07:39:37.893Z,2.47
2022-12-15T07:42:13.575Z,3.08
2022-12-15T07:44:51.143Z,2.75
2022-12-15T07:47:27.946Z,2.33
2022-12-15T07:50:06.217Z,2.67
2022-12-15T07:52:42.282Z,2.95
2022-12-15T07:55:32.493Z,3.20
2022-12-15T07:58:17.489Z,2.92
2022-12-15T08:00:53.075Z,3.17
2022-12-15T08:03:29.759Z,3.47
2022-12-15T08:06:11.732Z,3.17
2022-12-15T08:08:51.032Z,3.20
2022-12-15T08:11:29.861Z,3.45
2022-12-15T08:14:09.112Z,3.10
2022-12-15T08:16:50.467Z,3.22
2022-12-15T08:19:26.954Z,3.33
2022-12-15T08:22:03.839Z,3.78
2022-12-15T08:24:40.036Z,3.28
2022-12-15T08:27:18.883Z,3.10
2022-12-15T08:29:55.643Z,2.72
2022-12-15T08:32:31.392Z,3.35
2022-12-15T08:35:25.398Z,3.33
2022-12-15T08:38:06.623Z,3.33
2022-12-15T08:40:43.527Z,2.92
2022-12-15T08:43:21.832Z,3.33
2022-12-15T08:45:58.137Z,2.95
2022-12-15T08:48:34.319Z,2.97
2022-12-15T08:51:11.701Z,3.15
2022-12-15T08:53:48.440Z,3.28
2022-12-15T08:56:26.635Z,2.75
2022-12-15T08:59:08.564Z,3.00
2022-12-15T09:01:45.209Z,3.20
2022-12-15T09:04:21.049Z,2.75
2022-12-15T09:06:57.379Z,3.20
2022-12-15T09:09:34.427Z,3.13
2022-12-15T09:12:11.501Z,3.60
2022-12-15T09:14:49.627Z,3.38
2022-12-15T09:17:25.836Z,3.25
2022-12-15T09:20:02.724Z,3.05
2022-12-15T09:22:39.636Z,3.15
2022-12-15T09:25:16.359Z,2.95
2022-12-15T09:27:51.947Z,3.53
2022-12-15T09:30:30.826Z,3.45
2022-12-15T09:33:08.530Z,3.35
2022-12-15T09:35:44.609Z,3.00
2022-12-15T09:38:20.905Z,3.30
2022-12-15T09:40:58.078Z,3.33
2022-12-15T09:43:37.153Z,3.05
2022-12-15T09:46:30.870Z,3.45
2022-12-15T09:49:11.763Z,3.13
2022-12-15T09:51:59.511Z,2.88
2022-12-15T09:54:40.307Z,3.00
2022-12-15T09:57:24.296Z,3.08
2022-12-15T10:00:12.406Z,2.97
2022-12-15T10:03:26.280Z,2.63
2022-12-15T10:06:27.108Z,3.10
2022-12-15T10:09:14.611Z,3.10
2022-12-15T10:11:55.608Z,3.38
2022-12-15T10:14:36.832Z,2.78
2022-12-15T10:17:25.871Z,3.05
2022-12-15T10:20:09.329Z,2.78
2022-12-15T10:22:50.268Z,3.08
2022-12-15T10:25:38.131Z,2.55
2022-12-15T10:28:31.674Z,2.85
2022-12-15T10:31:14.357Z,2.80
2022-12-15T10:33:56.391Z,2.80
2022-12-15T10:36:32.589Z,2.08
2022-12-15T10:39:14.413Z,2.72
2022-12-15T10:42:12.873Z,2.50
2022-12-15T10:44:51.247Z,2.67
2022-12-15T10:47:29.745Z,2.97
2022-12-15T10:50:28.078Z,3.10
2022-12-15T10:53:05.024Z,2.10
2022-12-15T10:55:50.085Z,2.40
2022-12-15T10:58:28.049Z,2.47
2022-12-15T11:01:14.519Z,2.67
2022-12-15T11:03:54.250Z,2.42
2022-12-15T11:06:32.629Z,2.20
2022-12-15T11:09:26.498Z,2.88
2022-12-15T11:12:20.558Z,2.72
2022-12-15T11:14:57.306Z,3.13
2022-12-15T11:17:45.174Z,2.97
2022-12-15T11:20:25.987Z,2.22
2022-12-15T11:23:08.050Z,2.17
2022-12-15T11:25:50.238Z,2.20
2022-12-15T11:28:37.618Z,2.15
2022-12-15T11:31:24.044Z,2.00
2022-12-15T11:34:00.752Z,1.48
2022-12-15T11:36:55.145Z,3.03
2022-12-15T11:39:53.945Z,2.78
2022-12-15T11:42:47.267Z,2.80
2022-12-15T11:45:31.540Z,2.95
2022-12-15T11:48:15.396Z,2.70
2022-12-15T11:51:02.682Z,3.15
2022-12-15T11:54:16.790Z,2.63
2022-12-15T11:56:58.643Z,2.58
2022-12-15T12:00:01.962Z,2.58
2022-12-15T12:03:13.338Z,2.45
2022-12-15T12:06:02.988Z,2.22
2022-12-15T12:09:09.163Z,2.20
2022-12-15T12:11:54.327Z,2.58
2022-12-15T12:14:43.923Z,2.45
2022-12-15T12:17:40.707Z,2.13
2022-12-15T12:20:25.577Z,1.88
2022-12-15T12:23:08.569Z,2.17
2022-12-15T12:25:51.077Z,2.10
2022-12-15T12:28:33.181Z,2.63
2022-12-15T12:31:13.859Z,2.00
2022-12-15T12:33:53.806Z,2.60
2022-12-15T12:36:32.869Z,2.20
2022-12-15T12:39:12.150Z,2.45
2022-12-15T12:41:56.042Z,2.30
2022-12-15T12:44:36.802Z,2.20
2022-12-15T12:47:18.510Z,2.20
2022-12-15T12:49:58.223Z,2.13
2022-12-15T12:52:39.890Z,2.40
2022-12-15T12:55:32.656Z,2.60
2022-12-15T12:58:29.406Z,2.00
2022-12-15T13:01:24.892Z,2.75
2022-12-15T13:04:16.600Z,2.15
2022-12-15T13:07:12.802Z,1.90
2022-12-15T13:10:18.097Z,1.98
2022-12-15T13:12:56.585Z,1.80
2022-12-15T13:15:43.199Z,2.25
2022-12-15T13:18:23.164Z,2.22
2022-12-15T13:21:01.586Z,1.92
2022-12-15T13:26:50.025Z,2.10
2022-12-15T13:29:28.587Z,2.10
2022-12-15T13:32:05.868Z,2.20
2022-12-15T13:34:45.084Z,2.03
2022-12-15T13:37:49.922Z,2.03
2022-12-15T13:40:55.687Z,2.63
2022-12-15T13:43:48.745Z,2.45
2022-12-15T13:46:31.141Z,1.95
2022-12-15T13:49:14.982Z,1.80
2022-12-15T13:51:51.796Z,1.67
2022-12-15T13:54:35.315Z,2.00
2022-12-15T13:57:14.735Z,1.90
2022-12-15T13:59:55.015Z,2.20
2022-12-15T14:02:32.537Z,1.83
2022-12-15T14:05:27.981Z,2.00
2022-12-15T14:08:05.626Z,1.98
2022-12-15T14:10:47.068Z,2.10
2022-12-15T14:13:28.165Z,2.83
2022-12-15T14:16:15.650Z,1.88
2022-12-15T14:19:08.074Z,2.17
2022-12-15T14:21:44.053Z,2.08
2022-12-15T14:24:41.283Z,2.00
2022-12-15T14:27:28.841Z,1.90
2022-12-15T14:30:24.045Z,2.00
2022-12-15T14:33:06.587Z,1.65
2022-12-15T14:35:49.458Z,2.00
2022-12-15T14:38:31.464Z,1.70
2022-12-15T14:41:08.721Z,1.65
2022-12-15T14:43:46.255Z,2.00
2022-12-15T14:46:42.908Z,1.70
2022-12-15T14:49:26.774Z,2.13
2022-12-15T14:52:07.111Z,2.10
2022-12-15T14:54:57.198Z,2.55
2022-12-15T14:57:44.299Z,1.73
2022-12-15T15:00:32.307Z,1.90
2022-12-15T15:03:13.112Z,2.20
2022-12-15T15:03:26.833Z,2.03
2022-12-15T15:06:09.057Z,2.10
2022-12-15T15:08:54.275Z,2.28
2022-12-15T15:11:34.245Z,2.17
2022-12-15T15:14:14.127Z,1.98
2022-12-15T15:16:50.415Z,2.40
2022-12-15T15:19:28.810Z,2.00
2022-12-15T15:22:08.899Z,2.25
2022-12-15T15:24:44.956Z,2.00
2022-12-15T15:27:38.276Z,1.73
2022-12-15T15:30:24.692Z,2.10
2022-12-15T15:33:03.964Z,1.92
2022-12-15T15:35:40.925Z,1.60
2022-12-15T15:38:29.466Z,2.05
2022-12-15T15:41:08.092Z,2.30
2022-12-15T15:43:43.883Z,2.08
2022-12-15T15:46:23.335Z,1.85
2022-12-15T15:49:01.134Z,2.03
2022-12-15T15:51:39.920Z,2.17
2022-12-15T15:54:22.035Z,2.30
2022-12-15T15:56:58.223Z,2.20
2022-12-15T15:59:34.563Z,1.88
2022-12-15T16:02:11.763Z,2.00
2022-12-15T16:04:49.810Z,2.20
2022-12-15T16:07:29.297Z,2.08
2022-12-15T16:10:07.944Z,1.85
2022-12-15T16:12:48.154Z,1.75
2022-12-15T16:15:29.591Z,1.80
2022-12-15T16:18:05.841Z,1.83
2022-12-15T16:20:43.171Z,1.70
2022-12-15T16:23:22.841Z,1.70
2022-12-15T16:26:02.521Z,1.70
2022-12-15T16:28:38.610Z,1.80
2022-12-15T16:31:19.665Z,1.92
2022-12-15T16:33:55.892Z,1.42
2022-12-15T16:36:31.675Z,1.58
2022-12-15T16:39:08.307Z,1.40
2022-12-15T16:41:46.794Z,1.60
2022-12-15T16:44:23.499Z,1.77
2022-12-15T16:46:59.457Z,1.73
2022-12-15T16:49:40.102Z,1.27
2022-12-15T16:52:24.471Z,1.40
2022-12-15T16:55:02.309Z,1.60
2022-12-15T16:57:41.937Z,1.50
2022-12-15T17:00:23.198Z,1.73
2022-12-15T17:02:59.289Z,1.50
2022-12-15T17:05:39.233Z,1.63
2022-12-15T17:08:22.054Z,2.17
2022-12-15T17:10:58.514Z,1.60
2022-12-15T17:13:45.660Z,1.90
2022-12-15T17:16:23.052Z,1.40
2022-12-15T17:18:59.240Z,1.33
2022-12-15T17:21:37.442Z,1.60
2022-12-15T17:24:17.458Z,1.55
2022-12-15T17:26:55.356Z,1.33
2022-12-15T17:29:33.686Z,1.30
2022-12-15T17:32:10.947Z,1.60
2022-12-15T17:34:46.917Z,1.73
2022-12-15T17:37:24.099Z,1.77
2022-12-15T17:40:00.203Z,1.50
2022-12-15T17:42:36.444Z,1.50
2022-12-15T17:45:21.435Z,1.50
2022-12-15T17:47:59.062Z,1.35
2022-12-15T17:50:36.773Z,1.70
2022-12-15T17:53:16.981Z,1.40
2022-12-15T17:55:54.131Z,1.55
2022-12-15T17:58:32.844Z,1.58
2022-12-15T18:01:11.736Z,1.85
2022-12-15T18:03:48.440Z,1.35
2022-12-15T18:06:24.190Z,1.50
2022-12-15T18:09:01.596Z,1.50
2022-12-15T18:11:37.348Z,1.25
2022-12-15T18:14:18.900Z,1.30
2022-12-15T18:16:57.152Z,1.40
2022-12-15T18:19:35.140Z,1.50
2022-12-15T18:22:15.294Z,1.40
2022-12-15T18:24:51.575Z,1.38
2022-12-15T18:27:29.218Z,1.40
2022-12-15T18:30:06.490Z,1.45
2022-12-15T18:32:44.220Z,1.17
2022-12-15T18:35:24.266Z,1.17
2022-12-15T18:38:00.529Z,1.05
2022-12-15T18:40:38.042Z,1.20
2022-12-15T18:43:19.815Z,1.00
2022-12-15T18:45:57.430Z,1.10
2022-12-15T18:48:36.759Z,1.15
2022-12-15T18:51:21.843Z,1.20
2022-12-15T18:53:58.314Z,1.42
2022-12-15T18:56:34.202Z,1.10
2022-12-15T18:59:10.726Z,1.30
2022-12-15T19:01:49.504Z,1.00
2022-12-15T19:04:27.034Z,0.90
2022-12-15T19:07:08.212Z,0.90
2022-12-15T19:09:43.887Z,0.90
2022-12-15T19:12:22.680Z,1.05
2022-12-15T19:17:59.646Z,0.90
2022-12-15T19:20:51.743Z,1.00
2022-12-15T19:23:29.608Z,0.80
2022-12-15T19:26:06.101Z,0.77
2022-12-15T19:28:42.312Z,1.00
2022-12-15T19:31:18.632Z,0.80
2022-12-15T19:33:57.904Z,1.00
2022-12-15T19:36:36.902Z,0.85
2022-12-15T19:39:21.879Z,0.93
2022-12-15T19:41:58.216Z,0.80
2022-12-15T19:44:34.686Z,0.90
2022-12-15T19:47:16.385Z,1.00
2022-12-15T19:49:56.665Z,0.90
2022-12-15T19:52:33.401Z,1.00
2022-12-15T19:55:11.805Z,0.98
2022-12-15T19:57:51.380Z,0.80
2022-12-15T20:00:28.941Z,0.80
2022-12-15T20:03:05.469Z,1.00
2022-12-15T20:05:44.133Z,1.00
2022-12-15T20:08:25.631Z,1.00
2022-12-15T20:11:01.809Z,0.73
2022-12-15T20:13:37.691Z,1.00
2022-12-15T20:16:17.717Z,0.90
2022-12-15T20:18:55.220Z,0.77
2022-12-15T20:21:37.390Z,1.00
2022-12-15T20:24:20.372Z,1.10
2022-12-15T20:26:57.005Z,0.95
2022-12-15T20:29:35.191Z,0.93
2022-12-15T20:32:22.094Z,1.10
2022-12-15T20:34:58.386Z,0.98
2022-12-15T20:37:36.980Z,1.10
2022-12-15T20:40:22.511Z,1.05
2022-12-15T20:43:00.013Z,1.10
2022-12-15T20:45:36.359Z,1.00
2022-12-15T20:48:16.094Z,1.13
2022-12-15T20:50:54.484Z,1.00
2022-12-15T20:53:34.124Z,1.20
2022-12-15T20:56:12.137Z,1.17
2022-12-15T20:58:48.702Z,1.10
2022-12-15T21:01:27.253Z,1.40
2022-12-15T21:04:04.411Z,1.80
2022-12-15T21:06:41.956Z,1.20
2022-12-15T21:09:22.512Z,1.00
2022-12-15T21:12:03.169Z,1.20
2022-12-15T21:14:43.846Z,1.08
2022-12-15T21:17:22.292Z,1.00
2022-12-15T21:19:58.946Z,1.08
2022-12-15T21:22:35.262Z,1.10
2022-12-15T21:25:31.221Z,1.20
2022-12-15T21:28:10.222Z,1.20
2022-12-15T21:30:47.626Z,1.20
2022-12-15T21:33:24.041Z,1.10
2022-12-15T21:35:59.517Z,1.00
2022-12-15T21:38:40.474Z,1.35
2022-12-15T21:41:23.860Z,1.00
2022-12-15T21:44:00.815Z,1.17
2022-12-15T21:46:36.515Z,1.10
2022-12-15T21:49:20.069Z,1.35
2022-12-15T21:52:01.332Z,1.30
2022-12-15T21:54:39.452Z,1.20
2022-12-15T21:57:18.986Z,1.40
2022-12-15T21:59:55.617Z,1.60
2022-12-15T22:02:34.921Z,1.20
2022-12-15T22:05:22.378Z,1.27
2022-12-15T22:07:58.479Z,1.45
2022-12-15T22:10:55.636Z,1.30
2022-12-15T22:13:34.638Z,1.33
2022-12-15T22:16:10.988Z,1.58
2022-12-15T22:18:51.614Z,1.48
2022-12-15T22:21:30.948Z,1.15
2022-12-15T22:24:07.462Z,1.23
2022-12-15T22:26:43.287Z,1.23
2022-12-15T22:29:23.486Z,1.48
2022-12-15T22:31:58.929Z,1.33
2022-12-15T22:34:34.401Z,1.30
2022-12-15T22:37:09.702Z,1.15
2022-12-15T22:39:44.724Z,1.00
2022-12-15T22:42:33.362Z,1.05
2022-12-15T22:45:13.383Z,1.10
2022-12-15T22:47:48.801Z,1.17
2022-12-15T22:50:35.738Z,1.10
2022-12-15T22:53:14.826Z,1.10
2022-12-15T22:55:54.859Z,1.15
2022-12-15T22:58:33.187Z,0.90
2022-12-15T23:01:12.029Z,0.90
2022-12-15T23:03:47.193Z,1.08
2022-12-15T23:06:25.712Z,1.30
2022-12-15T23:09:01.930Z,0.93
2022-12-15T23:11:40.963Z,0.90
2022-12-15T23:14:20.012Z,1.30
2022-12-15T23:16:56.724Z,1.20
2022-12-15T23:19:31.289Z,1.25
2022-12-15T23:22:06.821Z,1.30
2022-12-15T23:24:42.915Z,1.60
2022-12-15T23:27:18.519Z,1.52
2022-12-15T23:29:53.905Z,1.40
2022-12-15T23:32:33.113Z,1.42
2022-12-15T23:35:08.828Z,1.35
2022-12-15T23:37:44.331Z,1.70
2022-12-15T23:40:23.070Z,1.40
2022-12-15T23:42:59.172Z,1.23
2022-12-15T23:45:34.436Z,1.30
2022-12-15T23:48:34.499Z,1.42
2022-12-15T23:51:10.416Z,1.50
2022-12-15T23:53:45.959Z,1.60
2022-12-15T23:56:22.704Z,1.70
2022-12-15T23:59:00.563Z,1.50
